createdAt,value
2023-04-02T00:01:01.690Z,100770.06
2023-04-02T00:03:59.314Z,100776.41
2023-04-02T00:06:30.232Z,100790.19
2023-04-02T00:09:04.441Z,100790.34
2023-04-02T00:11:37.298Z,100795.28
2023-04-02T00:14:21.768Z,100795.00
2023-04-02T00:16:49.243Z,100809.25
2023-04-02T00:19:51.801Z,100809.44
2023-04-02T00:22:29.174Z,100815.50
2023-04-02T00:24:59.806Z,100820.78
2023-04-02T00:27:27.132Z,100833.81
2023-04-02T00:29:56.842Z,100828.84
2023-04-02T00:32:32.119Z,100839.94
2023-04-02T00:35:00.507Z,100846.56
2023-04-02T00:37:38.584Z,100846.94
2023-04-02T00:40:19.578Z,100848.66
2023-04-02T00:42:49.985Z,100854.81
2023-04-02T00:45:24.249Z,100854.78
2023-04-02T00:47:52.435Z,100857.41
2023-04-02T00:50:30.034Z,100866.31
2023-04-02T00:52:59.896Z,100874.28
2023-04-02T00:55:40.484Z,100868.13
2023-04-02T00:58:29.962Z,100875.75
2023-04-02T01:00:59.986Z,100874.88
2023-04-02T01:03:36.316Z,100880.50
2023-04-02T01:06:15.447Z,100881.25
2023-04-02T01:09:07.648Z,100890.09
2023-04-02T01:12:05.805Z,100885.97
2023-04-02T01:15:16.794Z,100898.81
2023-04-02T01:18:18.654Z,100897.72
2023-04-02T01:21:07.594Z,100901.09
2023-04-02T01:24:04.288Z,100907.53
2023-04-02T01:26:54.914Z,100914.38
2023-04-02T01:29:30.584Z,100915.00
2023-04-02T01:32:05.795Z,100920.81
2023-04-02T01:34:34.581Z,100930.13
2023-04-02T01:37:17.840Z,100929.97
2023-04-02T01:40:32.897Z,100936.00
2023-04-02T01:43:10.893Z,100941.56
2023-04-02T01:45:38.462Z,100945.22
2023-04-02T01:48:14.612Z,100957.25
2023-04-02T01:50:45.611Z,100960.28
2023-04-02T01:53:17.740Z,100959.81
2023-04-02T01:55:50.636Z,100966.94
2023-04-02T01:58:26.169Z,100968.66
2023-04-02T02:01:02.166Z,100976.25
2023-04-02T02:03:30.756Z,100970.94
2023-04-02T02:05:59.773Z,100982.09
2023-04-02T02:08:45.067Z,100985.22
2023-04-02T02:11:18.614Z,100985.84
2023-04-02T02:13:56.451Z,100989.09
2023-04-02T02:16:27.337Z,100989.47
2023-04-02T02:19:00.668Z,101002.56
2023-04-02T02:21:46.461Z,101005.31
2023-04-02T02:24:31.619Z,101011.00
2023-04-02T02:27:54.983Z,101014.47
2023-04-02T02:30:30.530Z,101021.66
2023-04-02T02:33:20.898Z,101024.06
2023-04-02T02:36:02.049Z,101034.38
2023-04-02T02:38:35.052Z,101037.31
2023-04-02T02:41:11.634Z,101040.53
2023-04-02T02:43:44.335Z,101042.66
2023-04-02T02:46:18.579Z,101038.66
2023-04-02T02:48:47.188Z,101047.56
2023-04-02T02:51:27.670Z,101059.97
2023-04-02T02:54:04.250Z,101059.06
2023-04-02T02:56:40.860Z,101058.16
2023-04-02T02:59:11.370Z,101067.25
2023-04-02T03:01:38.893Z,101062.06
2023-04-02T03:04:06.805Z,101065.44
2023-04-02T03:06:34.266Z,101072.19
2023-04-02T03:09:19.604Z,101081.38
2023-04-02T03:11:57.918Z,101088.84
2023-04-02T03:14:44.053Z,101084.44
2023-04-02T03:17:20.384Z,101085.97
2023-04-02T03:20:11.374Z,101100.19
2023-04-02T03:22:53.033Z,101099.84
2023-04-02T03:25:39.693Z,101102.50
2023-04-02T03:28:19.653Z,101114.84
2023-04-02T03:30:50.237Z,101126.94
2023-04-02T03:33:59.648Z,101122.91
2023-04-02T03:36:51.208Z,101136.88
2023-04-02T03:39:37.546Z,101140.72
2023-04-02T03:42:26.094Z,101151.16
2023-04-02T03:45:05.569Z,101154.31
2023-04-02T03:47:46.711Z,101161.72
2023-04-02T03:50:34.410Z,101162.47
2023-04-02T03:53:05.570Z,101169.94
2023-04-02T03:55:37.988Z,101176.03
2023-04-02T03:58:19.141Z,101188.28
2023-04-02T04:00:58.765Z,101188.47
2023-04-02T04:03:41.735Z,101204.31
2023-04-02T04:06:32.196Z,101202.22
2023-04-02T04:09:20.480Z,101208.19
2023-04-02T04:12:09.629Z,101208.09
2023-04-02T04:14:44.049Z,101208.44
2023-04-02T04:17:29.847Z,101218.72
2023-04-02T04:20:15.524Z,101223.16
2023-04-02T04:22:43.185Z,101229.06
2023-04-02T04:25:29.940Z,101229.56
2023-04-02T04:28:29.202Z,101232.41
2023-04-02T04:31:09.360Z,101231.69
2023-04-02T04:33:45.140Z,101249.63
2023-04-02T04:36:55.106Z,101242.47
2023-04-02T04:39:40.944Z,101243.72
2023-04-02T04:42:20.229Z,101252.84
2023-04-02T04:45:33.848Z,101255.56
2023-04-02T04:48:16.304Z,101268.97
2023-04-02T04:51:05.940Z,101273.78
2023-04-02T04:53:33.373Z,101274.13
2023-04-02T04:56:18.212Z,101279.06
2023-04-02T04:58:56.707Z,101273.25
2023-04-02T05:01:52.286Z,101291.94
2023-04-02T05:04:26.285Z,101290.63
2023-04-02T05:07:34.689Z,101300.13
2023-04-02T05:10:17.189Z,101298.84
2023-04-02T05:13:03.762Z,101307.81
2023-04-02T05:15:42.063Z,101310.72
2023-04-02T05:18:21.847Z,101321.16
2023-04-02T05:21:04.082Z,101317.81
2023-04-02T05:24:19.113Z,101327.97
2023-04-02T05:26:51.145Z,101337.00
2023-04-02T05:29:24.861Z,101340.84
2023-04-02T05:32:14.877Z,101342.94
2023-04-02T05:34:48.557Z,101351.25
2023-04-02T05:37:24.453Z,101357.56
2023-04-02T05:39:58.445Z,101355.31
2023-04-02T05:42:31.547Z,101366.47
2023-04-02T05:45:37.353Z,101362.13
2023-04-02T05:48:19.469Z,101376.63
2023-04-02T05:50:54.528Z,101377.75
2023-04-02T05:53:37.687Z,101379.34
2023-04-02T05:56:17.712Z,101378.81
2023-04-02T05:58:52.503Z,101387.00
2023-04-02T06:01:33.571Z,101390.47
2023-04-02T06:04:07.447Z,101397.16
2023-04-02T06:06:46.211Z,101403.97
2023-04-02T06:09:34.759Z,101403.09
2023-04-02T06:12:18.149Z,101410.06
2023-04-02T06:14:46.401Z,101429.59
2023-04-02T06:17:18.052Z,101421.78
2023-04-02T06:19:46.772Z,101422.66
2023-04-02T06:22:37.250Z,101431.84
2023-04-02T06:25:23.436Z,101446.44
2023-04-02T06:27:55.196Z,101447.22
2023-04-02T06:30:33.178Z,101456.59
2023-04-02T06:33:00.771Z,101464.75
2023-04-02T06:35:28.398Z,101466.88
2023-04-02T06:38:01.357Z,101473.44
2023-04-02T06:40:50.406Z,101467.50
2023-04-02T06:43:36.500Z,101476.44
2023-04-02T06:46:34.531Z,101485.09
2023-04-02T06:49:14.715Z,101486.47
2023-04-02T06:51:45.755Z,101493.41
2023-04-02T06:54:18.635Z,101502.41
2023-04-02T06:56:52.097Z,101502.16
2023-04-02T06:59:20.297Z,101502.69
2023-04-02T07:01:54.851Z,101508.34
2023-04-02T07:04:22.525Z,101517.44
2023-04-02T07:06:49.861Z,101517.94
2023-04-02T07:09:17.264Z,101519.03
2023-04-02T07:11:44.438Z,101525.22
2023-04-02T07:14:13.088Z,101531.69
2023-04-02T07:16:43.292Z,101537.47
2023-04-02T07:19:21.773Z,101544.81
2023-04-02T07:21:49.107Z,101541.34
2023-04-02T07:24:16.321Z,101544.78
2023-04-02T07:26:44.062Z,101548.03
2023-04-02T07:29:16.721Z,101549.75
2023-04-02T07:31:44.584Z,101563.88
2023-04-02T07:34:11.999Z,101574.41
2023-04-02T07:36:39.180Z,101564.00
2023-04-02T07:39:06.402Z,101571.31
2023-04-02T07:41:33.602Z,101573.41
2023-04-02T07:44:00.971Z,101584.31
2023-04-02T07:46:28.211Z,101589.03
2023-04-02T07:48:55.408Z,101591.78
2023-04-02T07:51:26.015Z,101598.84
2023-04-02T07:53:56.552Z,101595.38
2023-04-02T07:56:25.505Z,101607.50
2023-04-02T07:58:52.838Z,101607.00
2023-04-02T08:01:25.429Z,101620.47
2023-04-02T08:03:55.207Z,101613.44
2023-04-02T08:06:24.294Z,101622.34
2023-04-02T08:08:52.287Z,101630.03
2023-04-02T08:11:19.565Z,101633.28
2023-04-02T08:13:47.188Z,101635.75
2023-04-02T08:16:14.502Z,101636.22
2023-04-02T08:18:41.653Z,101646.91
2023-04-02T08:21:11.027Z,101643.06
2023-04-02T08:23:38.735Z,101653.75
2023-04-02T08:26:06.557Z,101665.41
2023-04-02T08:28:34.264Z,101658.59
2023-04-02T08:31:02.261Z,101665.75
2023-04-02T08:33:29.510Z,101662.09
2023-04-02T08:35:56.655Z,101672.22
2023-04-02T08:38:23.975Z,101680.00
2023-04-02T08:40:56.274Z,101677.81
2023-04-02T08:44:00.389Z,101682.63
2023-04-02T08:46:56.572Z,101686.97
2023-04-02T08:49:39.928Z,101699.66
2023-04-02T08:52:23.532Z,101696.28
2023-04-02T08:54:50.801Z,101702.22
2023-04-02T08:57:46.060Z,101707.94
2023-04-02T09:00:37.987Z,101708.22
2023-04-02T09:03:21.316Z,101712.66
2023-04-02T09:05:51.485Z,101706.47
2023-04-02T09:08:28.204Z,101712.66
2023-04-02T09:11:22.218Z,101719.91
2023-04-02T09:13:57.468Z,101721.50
2023-04-02T09:16:52.776Z,101719.16
2023-04-02T09:19:34.777Z,101728.19
2023-04-02T09:22:25.341Z,101741.63
2023-04-02T09:24:58.584Z,101739.03
2023-04-02T09:27:36.351Z,101741.84
2023-04-02T09:30:24.164Z,101750.53
2023-04-02T09:33:02.177Z,101746.69
2023-04-02T09:35:49.454Z,101754.13
2023-04-02T09:38:31.446Z,101751.16
2023-04-02T09:41:06.713Z,101764.78
2023-04-02T09:43:39.073Z,101765.44
2023-04-02T09:46:25.754Z,101773.72
2023-04-02T09:49:00.990Z,101767.41
2023-04-02T09:51:35.007Z,101779.78
2023-04-02T09:54:02.018Z,101787.63
2023-04-02T09:56:35.856Z,101779.19
2023-04-02T09:59:21.861Z,101784.16
2023-04-02T10:01:55.002Z,101788.09
2023-04-02T10:04:47.683Z,101793.25
2023-04-02T10:07:44.987Z,101789.34
2023-04-02T10:10:30.891Z,101804.72
2023-04-02T10:13:07.651Z,101802.25
2023-04-02T10:15:58.430Z,101801.88
2023-04-02T10:18:56.923Z,101803.56
2023-04-02T10:21:37.202Z,101802.34
2023-04-02T10:24:14.365Z,101817.91
2023-04-02T10:27:09.886Z,101814.88
2023-04-02T10:30:01.984Z,101815.13
2023-04-02T10:32:54.512Z,101822.44
2023-04-02T10:36:08.294Z,101817.69
2023-04-02T10:38:46.268Z,101818.91
2023-04-02T10:41:30.680Z,101819.59
2023-04-02T10:44:19.598Z,101822.19
2023-04-02T10:47:09.118Z,101827.81
2023-04-02T10:49:51.890Z,101821.78
2023-04-02T10:52:30.665Z,101812.38
2023-04-02T10:55:16.576Z,101818.00
2023-04-02T10:57:45.994Z,101817.69
2023-04-02T11:00:15.869Z,101816.56
2023-04-02T11:03:02.334Z,101816.72
2023-04-02T11:05:46.605Z,101822.88
2023-04-02T11:08:23.516Z,101834.44
2023-04-02T11:11:01.836Z,101837.19
2023-04-02T11:13:43.469Z,101824.81
2023-04-02T11:16:15.988Z,101839.03
2023-04-02T11:19:03.589Z,101848.66
2023-04-02T11:21:30.682Z,101840.81
2023-04-02T11:24:03.579Z,101846.97
2023-04-02T11:26:47.372Z,101849.72
2023-04-02T11:29:25.031Z,101860.41
2023-04-02T11:32:21.275Z,101847.63
2023-04-02T11:34:56.309Z,101853.91
2023-04-02T11:37:45.403Z,101845.22
2023-04-02T11:40:13.677Z,101844.41
2023-04-02T11:42:47.588Z,101840.88
2023-04-02T11:45:23.760Z,101840.66
2023-04-02T11:48:26.642Z,101844.19
2023-04-02T11:50:54.084Z,101844.50
2023-04-02T11:53:31.340Z,101843.28
2023-04-02T11:56:09.392Z,101853.63
2023-04-02T11:59:02.509Z,101850.06
2023-04-02T12:02:01.265Z,101853.81
2023-04-02T12:05:09.881Z,101853.50
2023-04-02T12:08:37.761Z,101849.16
2023-04-02T12:11:09.207Z,101869.03
2023-04-02T12:13:39.149Z,101870.81
2023-04-02T12:16:12.179Z,101869.59
2023-04-02T12:18:48.421Z,101876.31
2023-04-02T12:21:24.921Z,101884.28
2023-04-02T12:23:57.573Z,101883.38
2023-04-02T12:26:37.670Z,101891.84
2023-04-02T12:29:26.119Z,101886.19
2023-04-02T12:31:56.543Z,101892.69
2023-04-02T12:34:27.891Z,101896.19
2023-04-02T12:37:04.723Z,101900.84
2023-04-02T12:39:33.901Z,101889.03
2023-04-02T12:42:01.350Z,101897.97
2023-04-02T12:44:30.973Z,101894.41
2023-04-02T12:46:59.416Z,101893.75
2023-04-02T12:49:43.188Z,101902.56
2023-04-02T12:52:17.960Z,101896.91
2023-04-02T12:54:49.331Z,101898.53
2023-04-02T12:57:30.055Z,101899.75
2023-04-02T13:00:27.388Z,101909.94
2023-04-02T13:03:03.242Z,101906.50
2023-04-02T13:05:56.993Z,101903.09
2023-04-02T13:08:42.341Z,101911.72
2023-04-02T13:11:09.636Z,101912.34
2023-04-02T13:13:43.419Z,101899.38
2023-04-02T13:16:19.531Z,101902.66
2023-04-02T13:18:49.050Z,101905.69
2023-04-02T13:21:19.475Z,101910.34
2023-04-02T13:23:47.548Z,101903.88
2023-04-02T13:26:29.457Z,101903.25
2023-04-02T13:29:17.656Z,101913.56
2023-04-02T13:31:44.992Z,101918.34
2023-04-02T13:34:12.169Z,101915.25
2023-04-02T13:36:39.460Z,101929.06
2023-04-02T13:39:06.796Z,101921.56
2023-04-02T13:41:42.088Z,101921.34
2023-04-02T13:44:22.058Z,101916.78
2023-04-02T13:46:49.996Z,101921.38
2023-04-02T13:49:18.236Z,101916.97
2023-04-02T13:51:57.906Z,101912.75
2023-04-02T13:54:43.374Z,101921.19
2023-04-02T13:57:10.732Z,101919.91
2023-04-02T13:59:37.994Z,101926.34
2023-04-02T14:02:15.968Z,101907.69
2023-04-02T14:04:50.596Z,101918.59
2023-04-02T14:07:28.221Z,101922.28
2023-04-02T14:10:22.838Z,101942.63
2023-04-02T14:13:26.698Z,101948.16
2023-04-02T14:16:35.798Z,101945.56
2023-04-02T14:19:32.315Z,101943.25
2023-04-02T14:22:24.675Z,101944.25
2023-04-02T14:25:25.392Z,101950.53
2023-04-02T14:28:14.370Z,101960.53
2023-04-02T14:31:06.795Z,101963.13
2023-04-02T14:34:21.989Z,101964.88
2023-04-02T14:37:04.413Z,101964.56
2023-04-02T14:40:07.605Z,101962.81
2023-04-02T14:42:46.376Z,101954.25
2023-04-02T14:45:42.858Z,101968.00
2023-04-02T14:48:40.572Z,101968.69
2023-04-02T14:51:22.162Z,101972.16
2023-04-02T14:54:31.444Z,101973.47
2023-04-02T14:57:18.806Z,101971.28
2023-04-02T15:00:06.050Z,101985.94
2023-04-02T15:02:58.969Z,101983.56
2023-04-02T15:05:58.796Z,101989.50
2023-04-02T15:08:36.922Z,101986.69
2023-04-02T15:11:24.579Z,101981.47
2023-04-02T15:14:02.316Z,101976.31
2023-04-02T15:16:33.039Z,101985.16
2023-04-02T15:19:01.229Z,101994.44
2023-04-02T15:22:02.900Z,101997.97
2023-04-02T15:25:03.068Z,101994.94
2023-04-02T15:27:51.126Z,101997.75
2023-04-02T15:30:25.867Z,102011.56
2023-04-02T15:33:17.047Z,102013.84
2023-04-02T15:35:53.782Z,102011.75
2023-04-02T15:38:30.954Z,102025.47
2023-04-02T15:41:26.264Z,102015.81
2023-04-02T15:44:14.383Z,102008.63
2023-04-02T15:47:25.964Z,102021.00
2023-04-02T15:50:15.350Z,102017.28
2023-04-02T15:53:14.647Z,102022.47
2023-04-02T15:55:49.215Z,102030.28
2023-04-02T15:58:54.444Z,102030.66
2023-04-02T16:01:40.938Z,102045.69
2023-04-02T16:04:42.870Z,102050.84
2023-04-02T16:07:36.610Z,102049.22
2023-04-02T16:10:33.895Z,102049.34
2023-04-02T16:13:19.326Z,102056.41
2023-04-02T16:15:58.520Z,102056.41
2023-04-02T16:18:59.125Z,102057.19
2023-04-02T16:21:37.398Z,102069.81
2023-04-02T16:24:13.826Z,102071.81
2023-04-02T16:27:31.582Z,102073.16
2023-04-02T16:30:38.943Z,102077.13
2023-04-02T16:33:38.814Z,102083.56
2023-04-02T16:36:52.129Z,102099.03
2023-04-02T16:39:57.495Z,102104.09
2023-04-02T16:43:11.290Z,102099.72
2023-04-02T16:46:38.933Z,102097.81
2023-04-02T16:49:31.490Z,102113.88
2023-04-02T16:52:15.527Z,102118.03
2023-04-02T16:55:11.660Z,102117.13
2023-04-02T16:58:12.383Z,102134.34
2023-04-02T17:00:53.095Z,102134.44
2023-04-02T17:03:56.847Z,102137.91
2023-04-02T17:06:35.773Z,102138.69
2023-04-02T17:09:14.849Z,102147.41
2023-04-02T17:11:56.033Z,102149.97
2023-04-02T17:14:37.376Z,102160.81
2023-04-02T17:17:05.877Z,102163.94
2023-04-02T17:19:33.269Z,102163.47
2023-04-02T17:22:04.468Z,102169.44
2023-04-02T17:25:04.393Z,102169.97
2023-04-02T17:27:40.953Z,102175.19
2023-04-02T17:30:38.153Z,102174.84
2023-04-02T17:33:15.226Z,102174.22
2023-04-02T17:36:10.912Z,102179.94
2023-04-02T17:39:22.982Z,102178.19
2023-04-02T17:42:13.211Z,102191.25
2023-04-02T17:45:13.354Z,102201.59
2023-04-02T17:47:55.265Z,102211.75
2023-04-02T17:50:57.720Z,102211.75
2023-04-02T17:54:01.549Z,102217.72
2023-04-02T17:57:08.781Z,102222.72
2023-04-02T18:00:26.015Z,102225.34
2023-04-02T18:03:19.151Z,102230.16
2023-04-02T18:05:58.993Z,102231.88
2023-04-02T18:08:43.539Z,102238.41
2023-04-02T18:11:34.747Z,102247.19
2023-04-02T18:14:35.424Z,102256.59
2023-04-02T18:17:34.943Z,102251.38
2023-04-02T18:20:34.417Z,102270.44
2023-04-02T18:23:48.881Z,102275.38
2023-04-02T18:26:22.411Z,102280.34
2023-04-02T18:29:29.550Z,102287.56
2023-04-02T18:32:24.369Z,102287.34
2023-04-02T18:35:32.434Z,102292.97
2023-04-02T18:38:57.609Z,102294.72
2023-04-02T18:41:42.760Z,102304.34
2023-04-02T18:44:45.685Z,102313.41
2023-04-02T18:47:38.306Z,102317.09
2023-04-02T18:50:39.189Z,102327.84
2023-04-02T18:53:21.456Z,102334.00
2023-04-02T18:55:57.812Z,102336.50
2023-04-02T18:58:38.305Z,102341.97
2023-04-02T19:01:11.362Z,102349.84
2023-04-02T19:03:46.460Z,102357.91
2023-04-02T19:06:23.330Z,102362.59
2023-04-02T19:08:59.518Z,102363.31
2023-04-02T19:11:29.377Z,102374.28
2023-04-02T19:14:11.828Z,102365.00
2023-04-02T19:17:04.220Z,102375.00
2023-04-02T19:20:04.107Z,102382.56
2023-04-02T19:23:16.039Z,102379.88
2023-04-02T19:26:00.871Z,102386.22
2023-04-02T19:28:45.644Z,102386.13
2023-04-02T19:31:25.330Z,102391.91
2023-04-02T19:34:20.487Z,102395.84
2023-04-02T19:37:04.701Z,102395.97
2023-04-02T19:40:13.690Z,102399.81
2023-04-02T19:42:48.600Z,102401.22
2023-04-02T19:45:31.129Z,102405.16
2023-04-02T19:48:03.351Z,102402.47
2023-04-02T19:50:30.942Z,102417.28
2023-04-02T19:52:58.159Z,102414.00
2023-04-02T19:55:27.077Z,102418.25
2023-04-02T19:58:01.301Z,102430.72
2023-04-02T20:00:40.195Z,102429.56
2023-04-02T20:03:07.345Z,102438.16
2023-04-02T20:05:34.818Z,102427.31
2023-04-02T20:08:02.135Z,102433.06
2023-04-02T20:10:29.289Z,102433.34
2023-04-02T20:12:56.407Z,102432.94
2023-04-02T20:15:23.596Z,102439.63
2023-04-02T20:17:50.919Z,102439.91
2023-04-02T20:20:18.131Z,102452.03
2023-04-02T20:22:45.301Z,102448.09
2023-04-02T20:25:12.478Z,102455.66
2023-04-02T20:27:39.902Z,102468.50
2023-04-02T20:30:08.353Z,102470.53
2023-04-02T20:32:37.760Z,102477.09
2023-04-02T20:35:06.293Z,102479.00
2023-04-02T20:37:34.126Z,102469.63
2023-04-02T20:40:01.309Z,102475.47
2023-04-02T20:42:28.761Z,102473.28
2023-04-02T20:44:55.986Z,102479.53
2023-04-02T20:47:23.182Z,102484.25
2023-04-02T20:49:50.566Z,102488.22
2023-04-02T20:52:17.931Z,102490.44
2023-04-02T20:54:45.081Z,102488.19
2023-04-02T20:57:13.631Z,102498.81
2023-04-02T20:59:40.896Z,102508.31
2023-04-02T21:02:11.717Z,102503.75
2023-04-02T21:04:38.901Z,102519.03
2023-04-02T21:07:06.124Z,102515.72
2023-04-02T21:09:33.269Z,102515.00
2023-04-02T21:12:00.598Z,102523.53
2023-04-02T21:14:27.816Z,102526.19
2023-04-02T21:16:55.031Z,102531.72
2023-04-02T21:19:22.179Z,102534.28
2023-04-02T21:21:49.355Z,102533.53
2023-04-02T21:24:16.943Z,102543.03
2023-04-02T21:26:46.363Z,102536.84
2023-04-02T21:29:13.622Z,102537.22
2023-04-02T21:31:41.592Z,102536.59
2023-04-02T21:34:15.614Z,102547.53
2023-04-02T21:36:46.501Z,102547.66
2023-04-02T21:39:21.507Z,102550.94
2023-04-02T21:41:51.842Z,102551.72
2023-04-02T21:44:22.125Z,102554.28
2023-04-02T21:46:51.908Z,102555.41
2023-04-02T21:49:26.201Z,102557.97
2023-04-02T21:51:53.504Z,102561.31
2023-04-02T21:54:21.444Z,102564.06
2023-04-02T21:56:49.286Z,102558.44
2023-04-02T21:59:18.367Z,102564.03
2023-04-02T22:01:49.697Z,102562.84
2023-04-02T22:04:24.312Z,102573.00
2023-04-02T22:06:53.298Z,102565.38
2023-04-02T22:09:26.471Z,102559.16
2023-04-02T22:12:01.684Z,102568.06
2023-04-02T22:14:29.752Z,102569.97
2023-04-02T22:16:58.748Z,102576.91
2023-04-02T22:19:26.649Z,102583.97
2023-04-02T22:21:54.016Z,102588.50
2023-04-02T22:24:24.840Z,102583.69
2023-04-02T22:26:52.670Z,102595.69
2023-04-02T22:29:19.855Z,102591.06
2023-04-02T22:31:47.415Z,102594.31
2023-04-02T22:34:14.568Z,102596.41
2023-04-02T22:36:41.723Z,102599.19
2023-04-02T22:39:11.975Z,102595.06
2023-04-02T22:41:39.567Z,102600.22
2023-04-02T22:44:06.848Z,102601.72
2023-04-02T22:46:34.748Z,102605.31
2023-04-02T22:49:02.138Z,102604.72
2023-04-02T22:51:29.397Z,102608.25
2023-04-02T22:53:56.801Z,102604.63
2023-04-02T22:56:32.073Z,102606.47
2023-04-02T22:58:59.985Z,102609.34
2023-04-02T23:01:34.185Z,102618.69
2023-04-02T23:04:01.723Z,102620.03
2023-04-02T23:06:29.129Z,102613.47
2023-04-02T23:08:56.754Z,102620.03
2023-04-02T23:11:27.581Z,102614.88
2023-04-02T23:13:57.761Z,102613.47
2023-04-02T23:16:28.371Z,102613.84
2023-04-02T23:18:56.585Z,102614.31
2023-04-02T23:21:25.008Z,102624.34
2023-04-02T23:23:52.228Z,102615.81
2023-04-02T23:26:29.356Z,102614.97
2023-04-02T23:28:58.947Z,102619.59
2023-04-02T23:31:26.545Z,102614.31
2023-04-02T23:33:53.877Z,102619.59
2023-04-02T23:36:30.265Z,102615.00
2023-04-02T23:39:01.774Z,102621.03
2023-04-02T23:41:30.443Z,102617.69
2023-04-02T23:43:58.495Z,102616.53
2023-04-02T23:46:26.361Z,102624.13
2023-04-02T23:48:54.822Z,102624.75
2023-04-02T23:51:23.170Z,102628.56
2023-04-02T23:53:52.562Z,102619.16
2023-04-02T23:56:20.791Z,102631.00
2023-04-02T23:58:48.947Z,102630.16
